createdAt,value
2022-10-07T00:00:33.214Z,9.711697
2022-10-07T00:01:33.278Z,9.711692
2022-10-07T00:02:34.227Z,9.711670
2022-10-07T00:03:33.189Z,9.711684
2022-10-07T00:04:33.165Z,9.711629
2022-10-07T00:05:33.185Z,9.711668
2022-10-07T00:06:33.158Z,9.711642
2022-10-07T00:07:33.153Z,9.711652
2022-10-07T00:08:33.138Z,9.711662
2022-10-07T00:09:33.125Z,9.711635
2022-10-07T00:10:33.720Z,9.711655
2022-10-07T00:11:33.114Z,9.711611
2022-10-07T00:12:33.106Z,9.711608
2022-10-07T00:13:34.790Z,9.711625
2022-10-07T00:14:33.086Z,9.711625
2022-10-07T00:15:34.827Z,9.711588
2022-10-07T00:16:33.166Z,9.711587
2022-10-07T00:17:33.062Z,9.711642
2022-10-07T00:18:34.719Z,9.711626
2022-10-07T00:19:33.045Z,9.711592
2022-10-07T00:20:33.038Z,9.711658
2022-10-07T00:21:33.055Z,9.711604
2022-10-07T00:22:33.020Z,9.711625
2022-10-07T00:23:33.015Z,9.711639
2022-10-07T00:24:33.004Z,9.711642
2022-10-07T00:25:33.009Z,9.711620
2022-10-07T00:26:34.835Z,9.711595
2022-10-07T00:27:32.985Z,9.711661
2022-10-07T00:28:33.065Z,9.711695
2022-10-07T00:33:34.507Z,9.710679
2022-10-07T00:34:34.505Z,9.709842
2022-10-07T00:35:35.374Z,9.709663
2022-10-07T00:36:34.484Z,9.710661
2022-10-07T00:37:35.379Z,9.711420
2022-10-07T00:38:35.376Z,9.712005
2022-10-07T00:39:34.468Z,9.712160
2022-10-07T00:40:34.457Z,9.712336
2022-10-07T00:41:34.451Z,9.712360
2022-10-07T00:42:34.445Z,9.712198
2022-10-07T00:43:34.446Z,9.712067
2022-10-07T00:44:34.439Z,9.712193
2022-10-07T00:45:34.463Z,9.711929
2022-10-07T00:46:34.412Z,9.712062
2022-10-07T00:47:34.409Z,9.712166
2022-10-07T00:48:35.299Z,9.712316
2022-10-07T00:49:34.404Z,9.712270
2022-10-07T00:50:34.385Z,9.711976
2022-10-07T00:51:34.376Z,9.712003
2022-10-07T00:52:34.371Z,9.712169
2022-10-07T00:53:34.361Z,9.712038
2022-10-07T00:54:34.360Z,9.712112
2022-10-07T00:55:34.348Z,9.712138
2022-10-07T00:56:34.345Z,9.712242
2022-10-07T00:57:34.331Z,9.712227
2022-10-07T00:58:34.323Z,9.712324
2022-10-07T00:59:35.876Z,9.712408
2022-10-07T01:00:34.304Z,9.712295
2022-10-07T01:01:34.356Z,9.712360
2022-10-07T01:02:34.384Z,9.712385
2022-10-07T01:03:34.283Z,9.712504
2022-10-07T01:04:34.275Z,9.712199
2022-10-07T01:05:34.273Z,9.712019
2022-10-07T01:06:34.269Z,9.712018
2022-10-07T01:07:34.262Z,9.711909
2022-10-07T01:08:34.251Z,9.711827
2022-10-07T01:09:34.245Z,9.711992
2022-10-07T01:10:34.805Z,9.711962
2022-10-07T01:11:34.219Z,9.711995
2022-10-07T01:12:34.213Z,9.712098
2022-10-07T01:13:34.807Z,9.712055
2022-10-07T01:14:34.197Z,9.712171
2022-10-07T01:15:34.201Z,9.712220
2022-10-07T01:16:34.218Z,9.712364
2022-10-07T01:17:35.882Z,9.712470
2022-10-07T01:18:34.166Z,9.712452
2022-10-07T01:19:34.157Z,9.712204
2022-10-07T01:20:34.151Z,9.712204
2022-10-07T01:21:34.147Z,9.712303
2022-10-07T01:22:34.131Z,9.711881
2022-10-07T01:23:34.123Z,9.711638
2022-10-07T01:24:34.116Z,9.711838
2022-10-07T01:25:34.817Z,9.711787
2022-10-07T01:26:34.113Z,9.712477
2022-10-07T01:27:34.096Z,9.712481
2022-10-07T01:28:34.154Z,9.712565
2022-10-07T01:29:34.079Z,9.712452
2022-10-07T01:30:34.111Z,9.712218
2022-10-07T01:31:34.813Z,9.712236
2022-10-07T01:32:34.067Z,9.712340
2022-10-07T01:33:34.052Z,9.712757
2022-10-07T01:34:34.035Z,9.712002
2022-10-07T01:35:34.030Z,9.711825
2022-10-07T01:36:34.025Z,9.711667
2022-10-07T01:37:34.020Z,9.711281
2022-10-07T01:38:34.024Z,9.711848
2022-10-07T01:39:33.998Z,9.711685
2022-10-07T01:40:33.994Z,9.711625
2022-10-07T01:41:34.027Z,9.711452
2022-10-07T01:42:33.982Z,9.712108
2022-10-07T01:43:33.969Z,9.711461
2022-10-07T01:44:33.967Z,9.711792
2022-10-07T01:45:33.955Z,9.711314
2022-10-07T01:46:33.987Z,9.711354
2022-10-07T01:47:33.946Z,9.711175
2022-10-07T01:48:33.929Z,9.711377
2022-10-07T01:49:33.922Z,9.711360
2022-10-07T01:50:33.914Z,9.711375
2022-10-07T01:51:33.907Z,9.711336
2022-10-07T01:52:33.901Z,9.711262
2022-10-07T01:53:33.889Z,9.711372
2022-10-07T01:54:33.869Z,9.711432
2022-10-07T01:55:34.873Z,9.711299
2022-10-07T01:56:33.863Z,9.711485
2022-10-07T01:57:33.868Z,9.711466
2022-10-07T01:58:33.846Z,9.711519
2022-10-07T01:59:33.845Z,9.711622
2022-10-07T02:00:33.836Z,9.711466
2022-10-07T02:01:33.861Z,9.711471
2022-10-07T02:02:33.812Z,9.711752
2022-10-07T02:03:33.847Z,9.711610
2022-10-07T02:04:33.795Z,9.711725
2022-10-07T02:05:33.794Z,9.711909
2022-10-07T02:06:33.781Z,9.711369
2022-10-07T02:07:33.768Z,9.711508
2022-10-07T02:08:33.774Z,9.711554
2022-10-07T02:09:33.754Z,9.711518
2022-10-07T02:10:33.750Z,9.711578
2022-10-07T02:11:33.744Z,9.711467
2022-10-07T02:12:33.726Z,9.711258
2022-10-07T02:13:33.718Z,9.711394
2022-10-07T02:14:33.711Z,9.711508
2022-10-07T02:15:33.721Z,9.711615
2022-10-07T02:16:33.698Z,9.711647
2022-10-07T02:17:33.684Z,9.711595
2022-10-07T02:18:33.677Z,9.711731
2022-10-07T02:19:33.667Z,9.711596
2022-10-07T02:20:33.661Z,9.711601
2022-10-07T02:21:33.662Z,9.711528
2022-10-07T02:22:33.648Z,9.711508
2022-10-07T02:23:33.641Z,9.711463
2022-10-07T02:24:33.633Z,9.711481
2022-10-07T02:25:33.625Z,9.711463
2022-10-07T02:26:33.630Z,9.711508
2022-10-07T02:27:34.322Z,9.711514
2022-10-07T02:28:33.702Z,9.711561
2022-10-07T02:29:33.592Z,9.711460
2022-10-07T02:30:33.588Z,9.711287
2022-10-07T02:31:33.718Z,9.711445
2022-10-07T02:32:33.567Z,9.711171
2022-10-07T02:33:33.561Z,9.711411
2022-10-07T02:34:33.553Z,9.711385
2022-10-07T02:35:33.547Z,9.711447
2022-10-07T02:36:33.542Z,9.711767
2022-10-07T02:37:33.542Z,9.711511
2022-10-07T02:38:33.529Z,9.711640
2022-10-07T02:39:33.513Z,9.711553
2022-10-07T02:40:33.507Z,9.711590
2022-10-07T02:41:33.504Z,9.711564
2022-10-07T02:42:33.501Z,9.711741
2022-10-07T02:43:33.483Z,9.711563
2022-10-07T02:44:33.489Z,9.711379
2022-10-07T02:45:33.482Z,9.711463
2022-10-07T02:46:33.490Z,9.711410
2022-10-07T02:47:33.463Z,9.711549
2022-10-07T02:48:33.428Z,9.711563
2022-10-07T02:49:34.440Z,9.711634
2022-10-07T02:50:33.425Z,9.711626
2022-10-07T02:51:33.420Z,9.711599
2022-10-07T02:52:33.420Z,9.711619
2022-10-07T02:53:33.404Z,9.711596
2022-10-07T02:54:33.406Z,9.711620
2022-10-07T02:55:33.898Z,9.711624
2022-10-07T02:56:33.378Z,9.711567
2022-10-07T02:57:34.329Z,9.711664
2022-10-07T02:58:33.366Z,9.711635
2022-10-07T02:59:33.366Z,9.711603
2022-10-07T03:00:33.351Z,9.711591
2022-10-07T03:01:33.443Z,9.711679
2022-10-07T03:02:33.339Z,9.711723
2022-10-07T03:03:33.411Z,9.711745
2022-10-07T03:04:33.323Z,9.711650
2022-10-07T03:05:33.306Z,9.711746
2022-10-07T03:06:33.302Z,9.711716
2022-10-07T03:07:33.294Z,9.711616
2022-10-07T03:08:33.295Z,9.711644
2022-10-07T03:09:33.281Z,9.711698
2022-10-07T03:10:33.278Z,9.711694
2022-10-07T03:11:33.260Z,9.711647
2022-10-07T03:12:33.260Z,9.711645
2022-10-07T03:13:33.263Z,9.711736
2022-10-07T03:14:33.247Z,9.711665
2022-10-07T03:15:33.305Z,9.711687
2022-10-07T03:16:33.899Z,9.711701
2022-10-07T03:17:33.220Z,9.711635
2022-10-07T03:18:33.211Z,9.711660
2022-10-07T03:19:33.207Z,9.711676
2022-10-07T03:20:33.199Z,9.711673
2022-10-07T03:21:33.181Z,9.711644
2022-10-07T03:22:33.178Z,9.711655
2022-10-07T03:23:33.171Z,9.711657
2022-10-07T03:24:33.168Z,9.711642
2022-10-07T03:25:33.151Z,9.711648
2022-10-07T03:26:33.140Z,9.711689
2022-10-07T03:27:33.136Z,9.711681
2022-10-07T03:28:33.202Z,9.711581
2022-10-07T03:29:33.124Z,9.711701
2022-10-07T03:30:33.106Z,9.711697
2022-10-07T03:31:33.128Z,9.711642
2022-10-07T03:32:33.096Z,9.711616
2022-10-07T03:33:33.093Z,9.711615
2022-10-07T03:34:33.086Z,9.711655
2022-10-07T03:35:33.068Z,9.711683
2022-10-07T03:36:33.063Z,9.711715
2022-10-07T03:37:33.059Z,9.711755
2022-10-07T03:38:33.058Z,9.711602
2022-10-07T03:39:33.049Z,9.711554
2022-10-07T03:40:33.038Z,9.711617
2022-10-07T03:41:33.022Z,9.711501
2022-10-07T03:42:35.847Z,9.711586
2022-10-07T03:43:33.010Z,9.711681
2022-10-07T03:44:33.002Z,9.711593
2022-10-07T03:45:35.920Z,9.711720
2022-10-07T03:46:34.014Z,9.711546
2022-10-07T03:47:32.968Z,9.711421
2022-10-07T03:48:32.966Z,9.711618
2022-10-07T03:49:32.966Z,9.711653
2022-10-07T03:50:32.945Z,9.711630
2022-10-07T03:51:32.939Z,9.711728
2022-10-07T03:52:32.939Z,9.711727
2022-10-07T03:53:32.920Z,9.711643
2022-10-07T03:54:32.912Z,9.711642
2022-10-07T03:55:32.905Z,9.711741
2022-10-07T03:56:33.412Z,9.711694
2022-10-07T03:57:32.900Z,9.711752
2022-10-07T03:58:32.886Z,9.711761
2022-10-07T03:59:32.878Z,9.711793
2022-10-07T04:00:32.874Z,9.711776
2022-10-07T04:01:32.915Z,9.711698
2022-10-07T04:02:32.897Z,9.711695
2022-10-07T04:03:33.417Z,9.711677
2022-10-07T04:04:32.837Z,9.711670
2022-10-07T04:05:32.840Z,9.711608
2022-10-07T04:06:32.829Z,9.711624
2022-10-07T04:07:32.816Z,9.711623
2022-10-07T04:08:32.985Z,9.711603
2022-10-07T04:09:32.798Z,9.711601
2022-10-07T04:10:32.796Z,9.711596
2022-10-07T04:11:32.793Z,9.711677
2022-10-07T04:12:32.776Z,9.711667
2022-10-07T04:13:32.767Z,9.711641
2022-10-07T04:14:32.767Z,9.711624
2022-10-07T04:15:32.757Z,9.711643
2022-10-07T04:16:37.169Z,9.711634
2022-10-07T04:17:34.747Z,9.711679
2022-10-07T04:18:32.758Z,9.711650
2022-10-07T04:19:32.721Z,9.711716
2022-10-07T04:20:32.725Z,9.711626
2022-10-07T04:21:32.739Z,9.711648
2022-10-07T04:22:32.699Z,9.711658
2022-10-07T04:23:32.690Z,9.711696
2022-10-07T04:24:32.692Z,9.711671
2022-10-07T04:25:32.685Z,9.711622
2022-10-07T04:26:32.669Z,9.711668
2022-10-07T04:27:50.721Z,9.711685
2022-10-07T04:28:34.824Z,9.711688
2022-10-07T04:29:39.129Z,9.711688
2022-10-07T04:30:34.657Z,9.711666
2022-10-07T04:31:33.668Z,9.711622
2022-10-07T04:32:32.634Z,9.711644
2022-10-07T04:33:32.618Z,9.711668
2022-10-07T04:34:32.615Z,9.711672
2022-10-07T04:35:32.611Z,9.711635
2022-10-07T04:36:32.600Z,9.711646
2022-10-07T04:37:32.591Z,9.711623
2022-10-07T04:38:32.587Z,9.711608
2022-10-07T04:39:56.197Z,9.711619
2022-10-07T04:40:35.347Z,9.711589
2022-10-07T04:41:32.566Z,9.711502
2022-10-07T04:42:32.552Z,9.711539
2022-10-07T04:43:32.542Z,9.711594
2022-10-07T04:44:32.553Z,9.711663
2022-10-07T04:45:32.532Z,9.711669
2022-10-07T04:46:32.563Z,9.711550
2022-10-07T04:47:32.522Z,9.711556
2022-10-07T04:48:32.509Z,9.711548
2022-10-07T04:49:32.500Z,9.711456
2022-10-07T04:50:33.346Z,9.711593
2022-10-07T04:51:32.485Z,9.711750
2022-10-07T04:52:32.476Z,9.711715
2022-10-07T04:53:33.350Z,9.711668
2022-10-07T04:54:32.527Z,9.711832
2022-10-07T04:55:32.460Z,9.711937
2022-10-07T04:56:32.967Z,9.711931
2022-10-07T04:57:32.435Z,9.711876
2022-10-07T04:58:32.430Z,9.711945
2022-10-07T04:59:33.724Z,9.711996
2022-10-07T05:00:32.528Z,9.712175
2022-10-07T05:01:32.411Z,9.712388
2022-10-07T05:02:32.423Z,9.712351
2022-10-07T05:03:32.392Z,9.712510
2022-10-07T05:04:32.379Z,9.712611
2022-10-07T05:05:32.366Z,9.712382
2022-10-07T05:06:32.367Z,9.712356
2022-10-07T05:07:32.355Z,9.712219
2022-10-07T05:08:32.350Z,9.711957
2022-10-07T05:09:32.387Z,9.711524
2022-10-07T05:10:32.923Z,9.711320
2022-10-07T05:11:32.343Z,9.711388
2022-10-07T05:12:32.326Z,9.711457
2022-10-07T05:13:32.306Z,9.711635
2022-10-07T05:14:32.304Z,9.711657
2022-10-07T05:15:32.297Z,9.711561
2022-10-07T05:16:32.358Z,9.711561
2022-10-07T05:17:32.304Z,9.711612
2022-10-07T05:18:32.279Z,9.711595
2022-10-07T05:19:32.261Z,9.711560
2022-10-07T05:20:32.272Z,9.711511
2022-10-07T05:21:32.257Z,9.711498
2022-10-07T05:22:32.246Z,9.711489
2022-10-07T05:23:32.243Z,9.711522
2022-10-07T05:24:32.885Z,9.711583
2022-10-07T05:25:32.217Z,9.711604
2022-10-07T05:26:32.222Z,9.711608
2022-10-07T05:27:32.235Z,9.711593
2022-10-07T05:28:32.251Z,9.711565
2022-10-07T05:29:32.189Z,9.711601
2022-10-07T05:30:32.180Z,9.711637
2022-10-07T05:31:32.243Z,9.711588
2022-10-07T05:32:32.160Z,9.711554
2022-10-07T05:33:32.160Z,9.711589
2022-10-07T05:34:32.177Z,9.711639
2022-10-07T05:35:32.132Z,9.711626
2022-10-07T05:36:32.140Z,9.711616
2022-10-07T05:37:32.132Z,9.711598
2022-10-07T05:38:32.115Z,9.711655
2022-10-07T05:39:32.123Z,9.711641
2022-10-07T05:40:32.095Z,9.711601
2022-10-07T05:41:32.088Z,9.711605
2022-10-07T05:42:32.079Z,9.711623
2022-10-07T05:43:32.074Z,9.711646
2022-10-07T05:44:32.075Z,9.711680
2022-10-07T05:45:32.119Z,9.711729
2022-10-07T05:46:32.057Z,9.711617
2022-10-07T05:47:32.048Z,9.711615
2022-10-07T05:48:36.589Z,9.711625
2022-10-07T05:49:34.036Z,9.711558
2022-10-07T05:50:32.030Z,9.711553
2022-10-07T05:51:32.017Z,9.711730
2022-10-07T05:52:32.005Z,9.711673
2022-10-07T05:53:31.996Z,9.711674
2022-10-07T05:54:31.994Z,9.711745
2022-10-07T05:55:34.688Z,9.711708
2022-10-07T05:56:31.985Z,9.711732
2022-10-07T05:57:31.980Z,9.711614
2022-10-07T05:58:32.969Z,9.711771
2022-10-07T05:59:33.929Z,9.711666
2022-10-07T06:00:31.989Z,9.711712
2022-10-07T06:01:31.951Z,9.711596
2022-10-07T06:02:32.027Z,9.711518
2022-10-07T06:03:31.926Z,9.711759
2022-10-07T06:04:33.877Z,9.711831
2022-10-07T06:05:31.914Z,9.711928
2022-10-07T06:06:31.906Z,9.711328
2022-10-07T06:07:31.891Z,9.711131
2022-10-07T06:08:31.887Z,9.711376
2022-10-07T06:09:31.876Z,9.711571
2022-10-07T06:10:31.865Z,9.711394
2022-10-07T06:11:31.855Z,9.711272
2022-10-07T06:12:31.843Z,9.711382
2022-10-07T06:13:31.848Z,9.711616
2022-10-07T06:14:32.444Z,9.711506
2022-10-07T06:15:31.904Z,9.711421
2022-10-07T06:16:31.891Z,9.711641
2022-10-07T06:17:31.802Z,9.711759
2022-10-07T06:18:31.819Z,9.711800
2022-10-07T06:19:31.793Z,9.711669
2022-10-07T06:20:31.780Z,9.711707
2022-10-07T06:21:31.780Z,9.711644
2022-10-07T06:22:31.765Z,9.711630
2022-10-07T06:23:32.381Z,9.711541
2022-10-07T06:24:31.749Z,9.711625
2022-10-07T06:25:31.744Z,9.711730
2022-10-07T06:26:31.739Z,9.711782
2022-10-07T06:27:31.741Z,9.711647
2022-10-07T06:28:31.805Z,9.711526
2022-10-07T06:29:32.366Z,9.711473
2022-10-07T06:30:31.773Z,9.711498
2022-10-07T06:31:31.699Z,9.711476
2022-10-07T06:32:31.698Z,9.711558
2022-10-07T06:33:31.692Z,9.711574
2022-10-07T06:34:31.677Z,9.711698
2022-10-07T06:35:31.666Z,9.711609
2022-10-07T06:36:31.658Z,9.711627
2022-10-07T06:37:31.776Z,9.711635
2022-10-07T06:38:31.653Z,9.711643
2022-10-07T06:39:31.644Z,9.711596
2022-10-07T06:40:31.628Z,9.711595
2022-10-07T06:41:31.637Z,9.711668
2022-10-07T06:42:31.618Z,9.711569
2022-10-07T06:43:31.607Z,9.711546
2022-10-07T06:44:31.598Z,9.711624
2022-10-07T06:45:31.793Z,9.711629
2022-10-07T06:46:31.689Z,9.711617
2022-10-07T06:47:31.573Z,9.711577
2022-10-07T06:48:31.572Z,9.711535
2022-10-07T06:49:31.582Z,9.711633
2022-10-07T06:50:31.559Z,9.711578
2022-10-07T06:51:31.558Z,9.711598
2022-10-07T06:52:31.536Z,9.711672
2022-10-07T06:53:31.542Z,9.711762
2022-10-07T06:54:31.565Z,9.711597
2022-10-07T06:55:31.517Z,9.711705
2022-10-07T06:56:31.528Z,9.711780
2022-10-07T06:57:45.252Z,9.711829
2022-10-07T06:58:33.494Z,9.711503
2022-10-07T06:59:31.565Z,9.711521
2022-10-07T07:00:31.489Z,9.711685
2022-10-07T07:01:32.537Z,9.711721
2022-10-07T07:02:31.547Z,9.711787
2022-10-07T07:03:31.454Z,9.711763
2022-10-07T07:04:31.446Z,9.711684
2022-10-07T07:05:32.957Z,9.711603
2022-10-07T07:06:31.432Z,9.711545
2022-10-07T07:07:31.428Z,9.711566
2022-10-07T07:08:31.413Z,9.711443
2022-10-07T07:09:31.405Z,9.711481
2022-10-07T07:10:31.403Z,9.711525
2022-10-07T07:11:31.409Z,9.711672
2022-10-07T07:12:35.466Z,9.711825
2022-10-07T07:13:31.383Z,9.711765
2022-10-07T07:14:34.913Z,9.711569
2022-10-07T07:15:31.364Z,9.711554
2022-10-07T07:16:31.421Z,9.711763
2022-10-07T07:17:33.350Z,9.711896
2022-10-07T07:18:31.947Z,9.711991
2022-10-07T07:19:35.459Z,9.711896
2022-10-07T07:20:38.375Z,9.711751
2022-10-07T07:21:31.303Z,9.711862
2022-10-07T07:22:31.328Z,9.712033
2022-10-07T07:23:31.327Z,9.712022
2022-10-07T07:24:31.284Z,9.711719
2022-10-07T07:25:31.294Z,9.711917
2022-10-07T07:26:31.267Z,9.712085
2022-10-07T07:27:31.267Z,9.712021
2022-10-07T07:28:31.364Z,9.711702
2022-10-07T07:29:31.256Z,9.711539
2022-10-07T07:30:31.262Z,9.711722
2022-10-07T07:31:31.879Z,9.711772
2022-10-07T07:32:31.254Z,9.711766
2022-10-07T07:33:31.216Z,9.711843
2022-10-07T07:34:31.207Z,9.711764
2022-10-07T07:35:31.199Z,9.711819
2022-10-07T07:36:31.202Z,9.711884
2022-10-07T07:37:31.190Z,9.711837
2022-10-07T07:38:31.173Z,9.711533
2022-10-07T07:39:31.167Z,9.711899
2022-10-07T07:40:31.170Z,9.712195
2022-10-07T07:41:31.154Z,9.712109
2022-10-07T07:42:31.142Z,9.711877
2022-10-07T07:43:31.144Z,9.711896
2022-10-07T07:44:34.129Z,9.711876
2022-10-07T07:45:32.139Z,9.712138
2022-10-07T07:46:31.127Z,9.712488
2022-10-07T07:47:31.114Z,9.712759
2022-10-07T07:48:31.100Z,9.711933
2022-10-07T07:49:31.090Z,9.711776
2022-10-07T07:50:32.873Z,9.711731
2022-10-07T07:51:31.066Z,9.711706
2022-10-07T07:52:31.965Z,9.711753
2022-10-07T07:53:31.109Z,9.711774
2022-10-07T07:54:32.952Z,9.711732
2022-10-07T07:55:31.032Z,9.711696
2022-10-07T07:56:31.024Z,9.711688
2022-10-07T07:57:31.016Z,9.711703
2022-10-07T07:58:31.029Z,9.711739
2022-10-07T07:59:31.009Z,9.711654
2022-10-07T08:00:30.997Z,9.711652
2022-10-07T08:01:31.029Z,9.711687
2022-10-07T08:02:32.024Z,9.711669
2022-10-07T08:03:30.994Z,9.711700
2022-10-07T08:04:30.975Z,9.711655
2022-10-07T08:05:33.888Z,9.711667
2022-10-07T08:06:30.964Z,9.711674
2022-10-07T08:07:30.952Z,9.711588
2022-10-07T08:08:30.946Z,9.711688
2022-10-07T08:09:30.957Z,9.711765
2022-10-07T08:10:32.454Z,9.711698
2022-10-07T08:11:30.913Z,9.711657
2022-10-07T08:12:30.913Z,9.711617
2022-10-07T08:13:30.898Z,9.711563
2022-10-07T08:14:30.901Z,9.711617
2022-10-07T08:15:30.912Z,9.711691
2022-10-07T08:16:30.873Z,9.711636
2022-10-07T08:17:32.459Z,9.711633
2022-10-07T08:18:30.855Z,9.711628
2022-10-07T08:19:30.868Z,9.711655
2022-10-07T08:20:30.834Z,9.711591
2022-10-07T08:21:31.393Z,9.711614
2022-10-07T08:22:30.820Z,9.711592
2022-10-07T08:23:30.817Z,9.711699
2022-10-07T08:24:30.807Z,9.711785
2022-10-07T08:25:31.390Z,9.711755
2022-10-07T08:26:30.796Z,9.711733
2022-10-07T08:27:30.800Z,9.711772
2022-10-07T08:28:30.828Z,9.711882
2022-10-07T08:29:30.771Z,9.711797
2022-10-07T08:30:30.767Z,9.711615
2022-10-07T08:31:31.124Z,9.711689
2022-10-07T08:32:30.774Z,9.711576
2022-10-07T08:33:30.731Z,9.711727
2022-10-07T08:34:30.729Z,9.711750
2022-10-07T08:35:30.726Z,9.711779
2022-10-07T08:36:31.712Z,9.711764
2022-10-07T08:37:30.726Z,9.711795
2022-10-07T08:38:30.703Z,9.711812
2022-10-07T08:39:30.691Z,9.711939
2022-10-07T08:40:30.980Z,9.711942
2022-10-07T08:41:32.500Z,9.711787
2022-10-07T08:42:31.673Z,9.711783
2022-10-07T08:43:30.652Z,9.711710
2022-10-07T08:44:30.643Z,9.711815
2022-10-07T08:45:30.638Z,9.711841
2022-10-07T08:46:30.655Z,9.711832
2022-10-07T08:47:30.634Z,9.711822
2022-10-07T08:48:30.623Z,9.711895
2022-10-07T08:49:30.605Z,9.711905
2022-10-07T08:50:30.608Z,9.711717
2022-10-07T08:51:30.587Z,9.711963
2022-10-07T08:52:31.395Z,9.712043
2022-10-07T08:53:30.580Z,9.712096
2022-10-07T08:54:30.578Z,9.712186
2022-10-07T08:55:31.508Z,9.712010
2022-10-07T08:56:30.558Z,9.711892
2022-10-07T08:57:32.394Z,9.712103
2022-10-07T08:58:30.562Z,9.712200
2022-10-07T08:59:30.535Z,9.712384
2022-10-07T09:00:30.515Z,9.712240
2022-10-07T09:01:30.600Z,9.711978
2022-10-07T09:02:30.521Z,9.712012
2022-10-07T09:03:31.472Z,9.712090
2022-10-07T09:04:30.489Z,9.712049
2022-10-07T09:05:30.487Z,9.711879
2022-10-07T09:06:30.475Z,9.711872
2022-10-07T09:07:30.476Z,9.711811
2022-10-07T09:08:30.461Z,9.711796
2022-10-07T09:09:30.454Z,9.712034
2022-10-07T09:10:30.438Z,9.711741
2022-10-07T09:11:31.444Z,9.711745
2022-10-07T09:12:31.400Z,9.711841
2022-10-07T09:16:37.499Z,9.711629
2022-10-07T09:17:37.480Z,9.711423
2022-10-07T09:18:37.467Z,9.711424
2022-10-07T09:19:37.460Z,9.711493
2022-10-07T09:20:38.130Z,9.711447
2022-10-07T09:21:37.453Z,9.711517
2022-10-07T09:22:37.445Z,9.711552
2022-10-07T09:23:37.420Z,9.711600
2022-10-07T09:24:37.513Z,9.711572
2022-10-07T09:25:37.411Z,9.711495
2022-10-07T09:26:37.536Z,9.711513
2022-10-07T09:27:37.391Z,9.711570
2022-10-07T09:28:37.466Z,9.711567
2022-10-07T09:29:37.479Z,9.711679
2022-10-07T09:30:38.051Z,9.711575
2022-10-07T09:31:37.448Z,9.711703
2022-10-07T09:32:37.358Z,9.711582
2022-10-07T09:33:38.128Z,9.711555
2022-10-07T09:34:37.336Z,9.711527
2022-10-07T09:35:37.322Z,9.711630
2022-10-07T09:36:37.323Z,9.711596
2022-10-07T09:37:38.305Z,9.711628
2022-10-07T09:38:37.316Z,9.711658
2022-10-07T09:39:37.309Z,9.711742
2022-10-07T09:40:37.296Z,9.711729
2022-10-07T09:41:37.279Z,9.711800
2022-10-07T09:42:37.266Z,9.711777
2022-10-07T09:43:37.271Z,9.711679
2022-10-07T09:44:37.270Z,9.711534
2022-10-07T09:45:37.246Z,9.711611
2022-10-07T09:46:37.278Z,9.711548
2022-10-07T09:47:37.225Z,9.711498
2022-10-07T09:48:37.232Z,9.711612
2022-10-07T09:49:37.215Z,9.711886
2022-10-07T09:50:37.239Z,9.711658
2022-10-07T09:51:37.212Z,9.711579
2022-10-07T09:52:37.205Z,9.711676
2022-10-07T09:53:37.190Z,9.711724
2022-10-07T09:54:37.178Z,9.711747
2022-10-07T09:55:37.166Z,9.711722
2022-10-07T09:56:37.165Z,9.711732
2022-10-07T09:57:37.149Z,9.711683
2022-10-07T09:58:37.184Z,9.711773
2022-10-07T09:59:37.646Z,9.711939
2022-10-07T10:00:37.144Z,9.711916
2022-10-07T10:01:37.155Z,9.711864
2022-10-07T10:02:37.260Z,9.711888
2022-10-07T10:03:37.195Z,9.711823
2022-10-07T10:04:37.098Z,9.711765
2022-10-07T10:05:37.107Z,9.711837
2022-10-07T10:06:37.072Z,9.711767
2022-10-07T10:07:37.075Z,9.711675
2022-10-07T10:08:37.091Z,9.711598
2022-10-07T10:32:45.151Z,9.712123
2022-10-07T10:33:44.811Z,9.711757
2022-10-07T10:34:45.349Z,9.711621
2022-10-07T10:35:44.793Z,9.711803
2022-10-07T10:36:44.797Z,9.711706
2022-10-07T10:37:44.782Z,9.711635
2022-10-07T10:38:44.767Z,9.711688
2022-10-07T10:39:44.763Z,9.711770
2022-10-07T10:40:44.797Z,9.711801
2022-10-07T10:41:44.737Z,9.711937
2022-10-07T10:42:45.151Z,9.711756
2022-10-07T10:43:44.722Z,9.711938
2022-10-07T10:44:44.718Z,9.711816
2022-10-07T10:45:44.706Z,9.711782
2022-10-07T10:46:48.448Z,9.712070
2022-10-07T10:47:46.696Z,9.711836
2022-10-07T10:48:44.701Z,9.711785
2022-10-07T10:49:44.682Z,9.711708
2022-10-07T10:50:44.662Z,9.711951
2022-10-07T10:51:44.668Z,9.711746
2022-10-07T10:52:44.861Z,9.712080
2022-10-07T10:53:44.653Z,9.712105
2022-10-07T10:54:44.634Z,9.712524
2022-10-07T10:55:44.653Z,9.711580
2022-10-07T10:56:44.617Z,9.711287
2022-10-07T10:57:44.644Z,9.711752
2022-10-07T10:58:44.612Z,9.712820
2022-10-07T10:59:44.600Z,9.711649
2022-10-07T11:00:45.271Z,9.711482
2022-10-07T11:01:44.617Z,9.711368
2022-10-07T11:02:44.909Z,9.711174
2022-10-07T11:03:44.562Z,9.711300
2022-10-07T11:04:46.355Z,9.711502
2022-10-07T11:05:44.648Z,9.711456
2022-10-07T11:06:48.365Z,9.711382
2022-10-07T11:07:44.566Z,9.711479
2022-10-07T11:08:49.296Z,9.711549
2022-10-07T11:09:44.516Z,9.711388
2022-10-07T11:10:44.514Z,9.711314
2022-10-07T11:11:44.508Z,9.711400
2022-10-07T11:12:45.552Z,9.711298
2022-10-07T11:13:44.515Z,9.711303
2022-10-07T11:14:44.504Z,9.711362
2022-10-07T11:15:45.523Z,9.711412
2022-10-07T11:16:44.487Z,9.711382
2022-10-07T11:17:45.496Z,9.711473
2022-10-07T11:18:44.445Z,9.711635
2022-10-07T11:19:44.445Z,9.711482
2022-10-07T11:20:44.933Z,9.711572
2022-10-07T11:21:45.634Z,9.711699
2022-10-07T11:22:44.885Z,9.711663
2022-10-07T11:23:44.421Z,9.711748
2022-10-07T11:25:17.801Z,9.711627
2022-10-07T11:25:44.391Z,9.711330
2022-10-07T11:26:44.383Z,9.711230
2022-10-07T11:27:44.402Z,9.711277
2022-10-07T11:28:44.419Z,9.711232
2022-10-07T11:29:44.364Z,9.711430
2022-10-07T11:30:44.356Z,9.711235
2022-10-07T11:31:44.481Z,9.711282
2022-10-07T11:32:44.672Z,9.711385
2022-10-07T11:33:44.325Z,9.711383
2022-10-07T11:34:44.334Z,9.711341
2022-10-07T11:35:44.310Z,9.711299
2022-10-07T11:36:44.297Z,9.711430
2022-10-07T11:37:44.284Z,9.711539
2022-10-07T11:38:44.276Z,9.711735
2022-10-07T11:39:44.272Z,9.711612
2022-10-07T11:40:44.299Z,9.711601
2022-10-07T11:41:44.253Z,9.711736
2022-10-07T11:42:44.808Z,9.711654
2022-10-07T11:43:44.228Z,9.711649
2022-10-07T11:44:45.226Z,9.711614
2022-10-07T11:45:44.246Z,9.711631
2022-10-07T11:46:44.297Z,9.711558
2022-10-07T11:47:44.254Z,9.711570
2022-10-07T11:48:44.806Z,9.711547
2022-10-07T11:49:44.255Z,9.711626
2022-10-07T11:50:44.957Z,9.711705
2022-10-07T11:51:44.182Z,9.711705
2022-10-07T11:52:44.385Z,9.711682
2022-10-07T11:53:44.149Z,9.711837
2022-10-07T11:54:44.148Z,9.711824
2022-10-07T11:55:44.132Z,9.711737
2022-10-07T11:56:44.126Z,9.711804
2022-10-07T11:57:44.127Z,9.711673
2022-10-07T11:58:44.115Z,9.711829
2022-10-07T11:59:44.113Z,9.711737
2022-10-07T12:00:44.105Z,9.711521
2022-10-07T12:01:44.148Z,9.711580
2022-10-07T12:02:44.430Z,9.711740
2022-10-07T12:03:44.086Z,9.711761
2022-10-07T12:04:44.066Z,9.711800
2022-10-07T12:05:44.056Z,9.711907
2022-10-07T12:06:44.075Z,9.711897
2022-10-07T12:07:44.046Z,9.711811
2022-10-07T12:08:44.059Z,9.711797
2022-10-07T12:09:44.031Z,9.711787
2022-10-07T12:10:44.017Z,9.711698
2022-10-07T12:11:44.008Z,9.711761
2022-10-07T12:12:45.462Z,9.711691
2022-10-07T12:13:44.011Z,9.711628
2022-10-07T12:14:44.419Z,9.711669